KLYH/LYH METAR and TAF weather

Enter ICAO airport designator
Station Type Date Time Source
KLYH METAR 2020/11/27 02:20 UTC NOAA

KLYH 270220Z 00000KT 3/4SM R04/P6000FT BR CLR 12/11 A3006 RMK AO2 T01170111


Station Type Date Time Source
KLYH Decoded METAR 2020/11/27 02:20 UTC NOAA

LYNCHBURG REGIONAL AIRPORT, VA, United States (KLYH) 37-19N 079-12W 295M
Nov 26, 2020 - 09:20 PM EST / 2020.11.27 0220 UTC
Wind: Calm:0
Visibility: 3/4 mile(s):0
Sky conditions: clear
Weather: mist
Temperature: 53.1 F (11.7 C)
Dew Point: 52.0 F (11.1 C)
Relative Humidity: 96%
Pressure (altimeter): 30.06 in. Hg (1017 hPa)
ob: KLYH 270220Z 00000KT 3/4SM R04/P6000FT BR CLR 12/11 A3006 RMK AO2 T01170111
cycle: 2

Station Type Date Time Source
KLYH TAF 2020/11/26 18:27 UTC NOAA

TAF KLYH 261724Z 2618/2718 22006KT P6SM SKC
FM262300 VRB03KT P6SM SKC
FM270900 VRB03KT P6SM OVC015
FM271500 02005KT P6SM SCT015

Example: see airport list